Aérodrome :
LOGIN :

S'inscrire | Disclaimer

   EN    FR    IT 

 










Légende :    VFR   VFR Marginal   IFR   IFR Intensif   IFR Très Intensif
Visi : 
Plafond : 
>= 8 km
>= 3000ft
5 à 8 km
1000 à 3000 ft
1500m à 5 km
500 à 1000 ft
800 à 1500m
200 à 500 ft
< 800m
< 200 ft
Symboles :   Orages  Brouillard  Fortes neiges  Fortes précipitations  Vent > 20 kt
SIGMETs :   Divers  Orages  Givrage  Turbulence  Onde Orograph.  Cendres Volcan.







- Altitude de l'aérodrome : 32 ft
- Code IATA : LKZ


EGUL - RAF Lakenheath

DERNIER METAR :
  • 210056Z AUTO 20011KT 9999 SCT085 08/06 A3015 RMK AO2 SLP213 T00820055 $

METARs EXPIRÉS :
  • 202356Z AUTO 22008KT 9999 SCT090 09/05 A3015 RMK AO2 SLP213 T00850052 10100 20085 401270075 52010 $
  • 202341Z AUTO 22010KT 9999 FEW020 BKN090 09/05 A3015 RMK AO2 SLP213 $
  • 202256Z AUTO 23013G18KT 9999 OVC020 09/05 A3014 RMK AO2 OVC V BKN SLP210 T00920052 $
  • 202241Z AUTO 23011KT 9999 BKN022 BKN095 09/05 A3014 RMK AO2 CIG 022V090 CIG 021 RWY06 SLP210 $

TAF TAF EGUL
Valide du 20 à 20h jusqu'au 22 à 02h UTC


202003Z 2020/2202 22012KT 9999 BKN080 QNH3010INS
BECMG 2103/2104 22012KT 9999 BKN020 BKN060 QNH3017INS
BECMG 2106/2107 23010G15KT 9999 BKN015 BKN060 QNH3018INS
BECMG 2200/2201 23009KT 9999 FEW020 QNH3038INS TX12/2113Z TN06/2103Z
Pas de NOTAMs connus pour ce terrain.



MET'MAP, la Météo Aéronautique d'un coup d'oeil ! - Copyright ORBIFLY Décembre 2007 - Disclaimer

ORBIFLY MET'MAP TEAM :

Programmation & Développement : Alexandra Zaïnal
Conception & Développement : Baudouin d'Aumeries
Co-Programmation & Développement : Marc-Olivier Méhu
Soutien technique & logistique : Manuel Goepfert

Contact : metmap@orbifly.com




SOURCES & CREDITS :

   NOAA